sensor_id;sensor_type;location;lat;lon;timestamp;P1;durP1;ratioP1;P2;durP2;ratioP2
71464;SDS011;59274;49.874;9.154;2024-03-07T00:00:34;42.53;;;19.55;;
71464;SDS011;59274;49.874;9.154;2024-03-07T00:03:00;38.67;;;18.60;;
71464;SDS011;59274;49.874;9.154;2024-03-07T00:05:26;42.80;;;19.50;;
71464;SDS011;59274;49.874;9.154;2024-03-07T00:07:52;43.10;;;20.38;;
71464;SDS011;59274;49.874;9.154;2024-03-07T00:10:18;45.80;;;19.45;;
71464;SDS011;59274;49.874;9.154;2024-03-07T00:12:44;40.67;;;18.37;;
71464;SDS011;59274;49.874;9.154;2024-03-07T00:15:10;42.73;;;18.97;;
71464;SDS011;59274;49.874;9.154;2024-03-07T00:17:37;42.40;;;18.50;;
71464;SDS011;59274;49.874;9.154;2024-03-07T00:20:03;43.03;;;19.70;;
71464;SDS011;59274;49.874;9.154;2024-03-07T00:22:30;39.67;;;19.02;;
71464;SDS011;59274;49.874;9.154;2024-03-07T00:24:56;42.75;;;19.02;;
71464;SDS011;59274;49.874;9.154;2024-03-07T00:27:22;39.73;;;18.10;;
71464;SDS011;59274;49.874;9.154;2024-03-07T00:29:48;38.95;;;17.50;;
71464;SDS011;59274;49.874;9.154;2024-03-07T00:32:22;38.10;;;17.30;;
71464;SDS011;59274;49.874;9.154;2024-03-07T00:34:49;37.35;;;16.77;;
71464;SDS011;59274;49.874;9.154;2024-03-07T00:37:15;37.73;;;16.97;;
71464;SDS011;59274;49.874;9.154;2024-03-07T00:39:42;36.08;;;15.90;;
71464;SDS011;59274;49.874;9.154;2024-03-07T00:42:08;35.53;;;16.05;;
71464;SDS011;59274;49.874;9.154;2024-03-07T00:44:34;36.20;;;16.25;;
71464;SDS011;59274;49.874;9.154;2024-03-07T00:47:00;32.13;;;16.13;;
71464;SDS011;59274;49.874;9.154;2024-03-07T00:49:29;34.37;;;15.70;;
71464;SDS011;59274;49.874;9.154;2024-03-07T00:51:56;36.03;;;15.98;;
71464;SDS011;59274;49.874;9.154;2024-03-07T00:54:23;36.38;;;15.82;;
71464;SDS011;59274;49.874;9.154;2024-03-07T00:56:48;36.63;;;15.17;;
71464;SDS011;59274;49.874;9.154;2024-03-07T00:59:17;34.72;;;16.20;;
71464;SDS011;59274;49.874;9.154;2024-03-07T01:01:43;35.03;;;16.25;;
71464;SDS011;59274;49.874;9.154;2024-03-07T01:04:09;31.33;;;15.13;;
71464;SDS011;59274;49.874;9.154;2024-03-07T01:06:35;30.75;;;14.80;;
71464;SDS011;59274;49.874;9.154;2024-03-07T01:09:05;34.80;;;14.93;;
71464;SDS011;59274;49.874;9.154;2024-03-07T01:11:38;33.75;;;14.15;;
71464;SDS011;59274;49.874;9.154;2024-03-07T01:14:04;32.28;;;15.50;;
71464;SDS011;59274;49.874;9.154;2024-03-07T01:16:30;33.67;;;16.17;;
71464;SDS011;59274;49.874;9.154;2024-03-07T01:18:55;33.55;;;15.60;;
71464;SDS011;59274;49.874;9.154;2024-03-07T01:21:23;30.50;;;15.80;;
71464;SDS011;59274;49.874;9.154;2024-03-07T01:23:49;31.55;;;14.90;;
71464;SDS011;59274;49.874;9.154;2024-03-07T01:26:14;34.53;;;16.33;;
71464;SDS011;59274;49.874;9.154;2024-03-07T01:28:40;31.47;;;14.87;;
71464;SDS011;59274;49.874;9.154;2024-03-07T01:31:06;38.53;;;15.23;;
71464;SDS011;59274;49.874;9.154;2024-03-07T01:33:33;34.50;;;15.70;;
71464;SDS011;59274;49.874;9.154;2024-03-07T01:35:58;37.23;;;16.07;;
71464;SDS011;59274;49.874;9.154;2024-03-07T01:38:24;33.53;;;15.73;;
71464;SDS011;59274;49.874;9.154;2024-03-07T01:40:51;29.60;;;14.50;;
71464;SDS011;59274;49.874;9.154;2024-03-07T01:43:17;34.20;;;14.52;;
71464;SDS011;59274;49.874;9.154;2024-03-07T01:45:43;35.58;;;16.55;;
71464;SDS011;59274;49.874;9.154;2024-03-07T01:48:09;32.53;;;15.47;;
71464;SDS011;59274;49.874;9.154;2024-03-07T01:50:36;38.33;;;15.60;;
71464;SDS011;59274;49.874;9.154;2024-03-07T01:53:08;38.35;;;16.25;;
71464;SDS011;59274;49.874;9.154;2024-03-07T01:55:36;34.65;;;15.50;;
71464;SDS011;59274;49.874;9.154;2024-03-07T01:58:02;31.80;;;14.70;;
71464;SDS011;59274;49.874;9.154;2024-03-07T02:00:32;34.65;;;16.33;;
71464;SDS011;59274;49.874;9.154;2024-03-07T02:02:57;33.80;;;15.50;;
71464;SDS011;59274;49.874;9.154;2024-03-07T02:05:23;34.33;;;16.10;;
71464;SDS011;59274;49.874;9.154;2024-03-07T02:07:50;38.53;;;15.30;;
71464;SDS011;59274;49.874;9.154;2024-03-07T02:10:16;32.40;;;14.18;;
71464;SDS011;59274;49.874;9.154;2024-03-07T02:12:43;32.78;;;15.15;;
71464;SDS011;59274;49.874;9.154;2024-03-07T02:15:10;32.53;;;15.87;;
71464;SDS011;59274;49.874;9.154;2024-03-07T02:17:35;33.42;;;16.08;;
71464;SDS011;59274;49.874;9.154;2024-03-07T02:20:02;31.05;;;14.35;;
71464;SDS011;59274;49.874;9.154;2024-03-07T02:22:29;32.03;;;14.30;;
71464;SDS011;59274;49.874;9.154;2024-03-07T02:24:55;37.30;;;14.77;;
71464;SDS011;59274;49.874;9.154;2024-03-07T02:27:20;29.93;;;15.00;;
71464;SDS011;59274;49.874;9.154;2024-03-07T02:29:46;32.28;;;14.50;;
71464;SDS011;59274;49.874;9.154;2024-03-07T02:32:12;31.58;;;13.80;;
71464;SDS011;59274;49.874;9.154;2024-03-07T02:34:38;36.40;;;15.13;;
71464;SDS011;59274;49.874;9.154;2024-03-07T02:37:03;30.20;;;13.80;;
71464;SDS011;59274;49.874;9.154;2024-03-07T02:39:29;30.38;;;13.35;;
71464;SDS011;59274;49.874;9.154;2024-03-07T02:41:55;32.67;;;15.10;;
71464;SDS011;59274;49.874;9.154;2024-03-07T02:44:21;28.57;;;13.53;;
71464;SDS011;59274;49.874;9.154;2024-03-07T02:46:47;34.00;;;14.35;;
71464;SDS011;59274;49.874;9.154;2024-03-07T02:49:13;33.25;;;14.73;;
71464;SDS011;59274;49.874;9.154;2024-03-07T02:51:43;29.70;;;14.00;;
71464;SDS011;59274;49.874;9.154;2024-03-07T02:54:12;30.77;;;13.93;;
71464;SDS011;59274;49.874;9.154;2024-03-07T02:56:37;31.10;;;14.80;;
71464;SDS011;59274;49.874;9.154;2024-03-07T02:59:03;32.33;;;13.87;;
71464;SDS011;59274;49.874;9.154;2024-03-07T03:01:29;34.85;;;14.13;;
71464;SDS011;59274;49.874;9.154;2024-03-07T03:04:02;28.95;;;13.88;;
71464;SDS011;59274;49.874;9.154;2024-03-07T03:06:28;30.17;;;12.97;;
71464;SDS011;59274;49.874;9.154;2024-03-07T03:08:53;27.88;;;13.45;;
71464;SDS011;59274;49.874;9.154;2024-03-07T03:11:19;31.40;;;14.53;;
71464;SDS011;59274;49.874;9.154;2024-03-07T03:13:45;30.73;;;12.95;;
71464;SDS011;59274;49.874;9.154;2024-03-07T03:16:13;29.30;;;12.43;;
71464;SDS011;59274;49.874;9.154;2024-03-07T03:18:39;31.75;;;13.50;;
71464;SDS011;59274;49.874;9.154;2024-03-07T03:21:05;27.60;;;12.73;;
71464;SDS011;59274;49.874;9.154;2024-03-07T03:23:31;30.87;;;13.53;;
71464;SDS011;59274;49.874;9.154;2024-03-07T03:25:58;28.38;;;13.02;;
71464;SDS011;59274;49.874;9.154;2024-03-07T03:28:24;26.58;;;12.43;;
71464;SDS011;59274;49.874;9.154;2024-03-07T03:30:50;25.27;;;10.97;;
71464;SDS011;59274;49.874;9.154;2024-03-07T03:33:17;26.08;;;11.98;;
71464;SDS011;59274;49.874;9.154;2024-03-07T03:35:43;27.60;;;12.13;;
71464;SDS011;59274;49.874;9.154;2024-03-07T03:38:09;28.50;;;12.07;;
71464;SDS011;59274;49.874;9.154;2024-03-07T03:40:37;27.77;;;11.93;;
71464;SDS011;59274;49.874;9.154;2024-03-07T03:43:03;27.83;;;11.10;;
71464;SDS011;59274;49.874;9.154;2024-03-07T03:45:29;28.90;;;11.55;;
71464;SDS011;59274;49.874;9.154;2024-03-07T03:47:57;27.50;;;11.85;;
71464;SDS011;59274;49.874;9.154;2024-03-07T03:50:23;29.77;;;12.20;;
71464;SDS011;59274;49.874;9.154;2024-03-07T03:52:49;27.57;;;11.63;;
71464;SDS011;59274;49.874;9.154;2024-03-07T03:55:15;23.65;;;11.27;;
71464;SDS011;59274;49.874;9.154;2024-03-07T03:57:41;26.13;;;11.27;;
71464;SDS011;59274;49.874;9.154;2024-03-07T04:00:09;22.53;;;10.53;;
71464;SDS011;59274;49.874;9.154;2024-03-07T04:02:42;26.45;;;11.15;;
71464;SDS011;59274;49.874;9.154;2024-03-07T04:05:15;26.50;;;11.63;;
71464;SDS011;59274;49.874;9.154;2024-03-07T04:07:42;26.60;;;11.40;;
71464;SDS011;59274;49.874;9.154;2024-03-07T04:10:08;25.30;;;11.63;;
71464;SDS011;59274;49.874;9.154;2024-03-07T04:12:39;29.35;;;12.05;;
71464;SDS011;59274;49.874;9.154;2024-03-07T04:15:09;27.75;;;10.88;;
71464;SDS011;59274;49.874;9.154;2024-03-07T04:17:37;25.77;;;10.75;;
71464;SDS011;59274;49.874;9.154;2024-03-07T04:20:03;25.08;;;11.18;;
71464;SDS011;59274;49.874;9.154;2024-03-07T04:22:35;26.43;;;10.40;;
71464;SDS011;59274;49.874;9.154;2024-03-07T04:25:04;28.25;;;11.65;;
71464;SDS011;59274;49.874;9.154;2024-03-07T04:27:33;28.20;;;12.35;;
71464;SDS011;59274;49.874;9.154;2024-03-07T04:30:02;26.75;;;11.30;;
71464;SDS011;59274;49.874;9.154;2024-03-07T04:32:29;25.75;;;11.25;;
71464;SDS011;59274;49.874;9.154;2024-03-07T04:34:55;27.07;;;10.73;;
71464;SDS011;59274;49.874;9.154;2024-03-07T04:37:24;29.65;;;12.30;;
71464;SDS011;59274;49.874;9.154;2024-03-07T04:39:49;26.23;;;10.85;;
71464;SDS011;59274;49.874;9.154;2024-03-07T04:42:15;27.50;;;11.25;;
71464;SDS011;59274;49.874;9.154;2024-03-07T04:44:43;25.48;;;11.57;;
71464;SDS011;59274;49.874;9.154;2024-03-07T04:47:09;24.23;;;11.17;;
71464;SDS011;59274;49.874;9.154;2024-03-07T04:49:34;27.63;;;11.23;;
71464;SDS011;59274;49.874;9.154;2024-03-07T04:52:01;24.85;;;11.57;;
71464;SDS011;59274;49.874;9.154;2024-03-07T04:54:29;27.98;;;11.38;;
71464;SDS011;59274;49.874;9.154;2024-03-07T04:56:55;24.15;;;11.32;;
71464;SDS011;59274;49.874;9.154;2024-03-07T04:59:21;28.07;;;12.13;;
71464;SDS011;59274;49.874;9.154;2024-03-07T05:01:48;25.77;;;11.65;;
71464;SDS011;59274;49.874;9.154;2024-03-07T05:04:20;24.35;;;10.55;;
71464;SDS011;59274;49.874;9.154;2024-03-07T05:06:48;26.95;;;11.27;;
71464;SDS011;59274;49.874;9.154;2024-03-07T05:09:14;24.13;;;11.53;;
71464;SDS011;59274;49.874;9.154;2024-03-07T05:11:50;24.52;;;11.98;;
71464;SDS011;59274;49.874;9.154;2024-03-07T05:14:19;27.17;;;11.57;;
71464;SDS011;59274;49.874;9.154;2024-03-07T05:16:45;30.27;;;12.32;;
71464;SDS011;59274;49.874;9.154;2024-03-07T05:19:11;25.17;;;11.27;;
71464;SDS011;59274;49.874;9.154;2024-03-07T05:21:37;28.63;;;12.47;;
71464;SDS011;59274;49.874;9.154;2024-03-07T05:24:04;29.08;;;12.20;;
71464;SDS011;59274;49.874;9.154;2024-03-07T05:26:31;29.60;;;11.98;;
71464;SDS011;59274;49.874;9.154;2024-03-07T05:29:05;31.58;;;12.07;;
71464;SDS011;59274;49.874;9.154;2024-03-07T05:31:36;26.13;;;12.00;;
71464;SDS011;59274;49.874;9.154;2024-03-07T05:34:15;26.73;;;12.70;;
71464;SDS011;59274;49.874;9.154;2024-03-07T05:36:44;26.23;;;11.65;;
71464;SDS011;59274;49.874;9.154;2024-03-07T05:39:15;28.20;;;12.85;;
71464;SDS011;59274;49.874;9.154;2024-03-07T05:41:43;27.77;;;11.95;;
71464;SDS011;59274;49.874;9.154;2024-03-07T05:44:15;26.00;;;11.77;;
71464;SDS011;59274;49.874;9.154;2024-03-07T05:46:41;26.00;;;11.67;;
71464;SDS011;59274;49.874;9.154;2024-03-07T05:49:14;26.50;;;11.55;;
71464;SDS011;59274;49.874;9.154;2024-03-07T05:51:43;28.00;;;11.93;;
71464;SDS011;59274;49.874;9.154;2024-03-07T05:54:12;28.87;;;12.80;;
71464;SDS011;59274;49.874;9.154;2024-03-07T05:56:38;28.05;;;12.45;;
71464;SDS011;59274;49.874;9.154;2024-03-07T05:59:08;27.80;;;12.07;;
71464;SDS011;59274;49.874;9.154;2024-03-07T06:01:37;26.73;;;12.30;;
71464;SDS011;59274;49.874;9.154;2024-03-07T06:04:04;29.65;;;12.52;;
71464;SDS011;59274;49.874;9.154;2024-03-07T06:06:31;27.10;;;12.50;;
71464;SDS011;59274;49.874;9.154;2024-03-07T06:08:58;34.05;;;16.08;;
71464;SDS011;59274;49.874;9.154;2024-03-07T06:11:37;34.53;;;16.42;;
71464;SDS011;59274;49.874;9.154;2024-03-07T06:14:04;35.30;;;15.93;;
71464;SDS011;59274;49.874;9.154;2024-03-07T06:16:31;30.60;;;13.60;;
71464;SDS011;59274;49.874;9.154;2024-03-07T06:19:00;26.43;;;13.20;;
71464;SDS011;59274;49.874;9.154;2024-03-07T06:21:27;31.73;;;14.45;;
71464;SDS011;59274;49.874;9.154;2024-03-07T06:23:53;38.15;;;16.33;;
71464;SDS011;59274;49.874;9.154;2024-03-07T06:26:33;30.35;;;15.13;;
71464;SDS011;59274;49.874;9.154;2024-03-07T06:29:13;29.92;;;14.07;;
71464;SDS011;59274;49.874;9.154;2024-03-07T06:31:41;33.37;;;13.03;;
71464;SDS011;59274;49.874;9.154;2024-03-07T06:34:07;29.13;;;13.60;;
71464;SDS011;59274;49.874;9.154;2024-03-07T06:36:34;25.58;;;12.75;;
71464;SDS011;59274;49.874;9.154;2024-03-07T06:39:00;28.20;;;13.02;;
71464;SDS011;59274;49.874;9.154;2024-03-07T06:41:28;30.75;;;14.57;;
71464;SDS011;59274;49.874;9.154;2024-03-07T06:43:53;27.13;;;12.70;;
71464;SDS011;59274;49.874;9.154;2024-03-07T06:46:20;26.40;;;12.15;;
71464;SDS011;59274;49.874;9.154;2024-03-07T06:48:47;23.00;;;11.27;;
71464;SDS011;59274;49.874;9.154;2024-03-07T06:51:13;26.20;;;11.70;;
71464;SDS011;59274;49.874;9.154;2024-03-07T06:53:38;26.47;;;12.40;;
71464;SDS011;59274;49.874;9.154;2024-03-07T06:56:05;27.63;;;12.73;;
71464;SDS011;59274;49.874;9.154;2024-03-07T06:58:32;28.80;;;13.32;;
71464;SDS011;59274;49.874;9.154;2024-03-07T07:00:58;29.05;;;12.35;;
71464;SDS011;59274;49.874;9.154;2024-03-07T07:03:26;32.72;;;14.68;;
71464;SDS011;59274;49.874;9.154;2024-03-07T07:05:55;29.27;;;13.37;;
71464;SDS011;59274;49.874;9.154;2024-03-07T07:08:20;32.30;;;13.82;;
71464;SDS011;59274;49.874;9.154;2024-03-07T07:10:47;27.08;;;12.32;;
71464;SDS011;59274;49.874;9.154;2024-03-07T07:13:12;30.13;;;13.83;;
71464;SDS011;59274;49.874;9.154;2024-03-07T07:15:38;28.93;;;14.10;;
71464;SDS011;59274;49.874;9.154;2024-03-07T07:18:04;27.83;;;15.13;;
71464;SDS011;59274;49.874;9.154;2024-03-07T07:20:31;32.35;;;15.32;;
71464;SDS011;59274;49.874;9.154;2024-03-07T07:22:59;28.80;;;13.90;;
71464;SDS011;59274;49.874;9.154;2024-03-07T07:25:27;24.57;;;12.80;;
71464;SDS011;59274;49.874;9.154;2024-03-07T07:27:53;26.73;;;12.52;;
71464;SDS011;59274;49.874;9.154;2024-03-07T07:30:21;26.70;;;12.68;;
71464;SDS011;59274;49.874;9.154;2024-03-07T07:32:48;28.07;;;13.43;;
71464;SDS011;59274;49.874;9.154;2024-03-07T07:35:14;27.77;;;13.13;;
71464;SDS011;59274;49.874;9.154;2024-03-07T07:37:44;30.90;;;14.65;;
71464;SDS011;59274;49.874;9.154;2024-03-07T07:40:12;25.15;;;12.48;;
71464;SDS011;59274;49.874;9.154;2024-03-07T07:42:42;28.10;;;14.07;;
71464;SDS011;59274;49.874;9.154;2024-03-07T07:45:09;27.17;;;12.60;;
71464;SDS011;59274;49.874;9.154;2024-03-07T07:47:44;27.80;;;12.15;;
71464;SDS011;59274;49.874;9.154;2024-03-07T07:50:12;26.42;;;12.40;;
71464;SDS011;59274;49.874;9.154;2024-03-07T07:52:57;24.83;;;12.52;;
71464;SDS011;59274;49.874;9.154;2024-03-07T07:55:24;26.50;;;12.57;;
71464;SDS011;59274;49.874;9.154;2024-03-07T07:57:55;22.93;;;11.50;;
71464;SDS011;59274;49.874;9.154;2024-03-07T08:00:22;23.02;;;11.00;;
71464;SDS011;59274;49.874;9.154;2024-03-07T08:02:56;26.75;;;11.82;;
71464;SDS011;59274;49.874;9.154;2024-03-07T08:05:31;21.10;;;10.68;;
71464;SDS011;59274;49.874;9.154;2024-03-07T08:07:59;21.63;;;11.00;;
71464;SDS011;59274;49.874;9.154;2024-03-07T08:10:28;22.93;;;11.00;;
71464;SDS011;59274;49.874;9.154;2024-03-07T08:12:54;23.88;;;11.20;;
71464;SDS011;59274;49.874;9.154;2024-03-07T08:15:20;23.13;;;11.77;;
71464;SDS011;59274;49.874;9.154;2024-03-07T08:17:46;23.23;;;10.63;;
71464;SDS011;59274;49.874;9.154;2024-03-07T08:20:13;23.27;;;10.77;;
71464;SDS011;59274;49.874;9.154;2024-03-07T08:22:40;22.23;;;11.73;;
71464;SDS011;59274;49.874;9.154;2024-03-07T08:25:11;23.13;;;10.90;;
71464;SDS011;59274;49.874;9.154;2024-03-07T08:27:38;21.17;;;11.20;;
71464;SDS011;59274;49.874;9.154;2024-03-07T08:30:05;21.02;;;11.50;;
71464;SDS011;59274;49.874;9.154;2024-03-07T08:32:50;22.97;;;11.53;;
71464;SDS011;59274;49.874;9.154;2024-03-07T08:35:19;21.35;;;11.23;;
71464;SDS011;59274;49.874;9.154;2024-03-07T08:37:46;24.50;;;12.50;;
71464;SDS011;59274;49.874;9.154;2024-03-07T08:40:19;20.17;;;10.07;;
71464;SDS011;59274;49.874;9.154;2024-03-07T08:42:49;21.83;;;11.15;;
71464;SDS011;59274;49.874;9.154;2024-03-07T08:45:20;23.40;;;10.33;;
71464;SDS011;59274;49.874;9.154;2024-03-07T08:47:47;21.73;;;10.57;;
71464;SDS011;59274;49.874;9.154;2024-03-07T08:50:15;20.00;;;10.15;;
71464;SDS011;59274;49.874;9.154;2024-03-07T08:52:46;21.15;;;10.63;;
71464;SDS011;59274;49.874;9.154;2024-03-07T08:55:16;21.20;;;10.63;;
71464;SDS011;59274;49.874;9.154;2024-03-07T08:57:44;20.90;;;10.50;;
71464;SDS011;59274;49.874;9.154;2024-03-07T09:00:11;20.15;;;10.82;;
71464;SDS011;59274;49.874;9.154;2024-03-07T09:02:47;21.45;;;10.52;;
71464;SDS011;59274;49.874;9.154;2024-03-07T09:05:15;22.42;;;11.20;;
71464;SDS011;59274;49.874;9.154;2024-03-07T09:07:41;20.70;;;10.13;;
71464;SDS011;59274;49.874;9.154;2024-03-07T09:10:07;18.77;;;9.52;;
71464;SDS011;59274;49.874;9.154;2024-03-07T09:12:32;21.57;;;9.37;;
71464;SDS011;59274;49.874;9.154;2024-03-07T09:14:58;21.77;;;10.50;;
71464;SDS011;59274;49.874;9.154;2024-03-07T09:17:24;20.60;;;10.40;;
71464;SDS011;59274;49.874;9.154;2024-03-07T09:19:49;19.97;;;9.53;;
71464;SDS011;59274;49.874;9.154;2024-03-07T09:22:15;20.20;;;10.18;;
71464;SDS011;59274;49.874;9.154;2024-03-07T09:24:41;30.83;;;13.20;;
71464;SDS011;59274;49.874;9.154;2024-03-07T09:27:10;21.50;;;9.77;;
71464;SDS011;59274;49.874;9.154;2024-03-07T09:29:35;24.95;;;11.73;;
71464;SDS011;59274;49.874;9.154;2024-03-07T09:32:01;21.52;;;10.77;;
71464;SDS011;59274;49.874;9.154;2024-03-07T09:34:27;21.13;;;10.43;;
71464;SDS011;59274;49.874;9.154;2024-03-07T09:36:56;18.52;;;10.07;;
71464;SDS011;59274;49.874;9.154;2024-03-07T09:39:21;19.27;;;10.73;;
71464;SDS011;59274;49.874;9.154;2024-03-07T09:41:47;19.40;;;10.23;;
71464;SDS011;59274;49.874;9.154;2024-03-07T09:44:15;18.88;;;9.98;;
71464;SDS011;59274;49.874;9.154;2024-03-07T09:46:47;21.23;;;9.47;;
71464;SDS011;59274;49.874;9.154;2024-03-07T09:49:15;20.92;;;9.77;;
71464;SDS011;59274;49.874;9.154;2024-03-07T09:51:41;20.05;;;11.00;;
71464;SDS011;59274;49.874;9.154;2024-03-07T09:54:09;19.67;;;9.98;;
71464;SDS011;59274;49.874;9.154;2024-03-07T09:56:35;20.50;;;9.67;;
71464;SDS011;59274;49.874;9.154;2024-03-07T09:59:03;20.45;;;9.52;;
71464;SDS011;59274;49.874;9.154;2024-03-07T10:01:32;20.85;;;9.27;;
71464;SDS011;59274;49.874;9.154;2024-03-07T10:04:00;18.48;;;9.80;;
71464;SDS011;59274;49.874;9.154;2024-03-07T10:06:38;20.63;;;9.90;;
71464;SDS011;59274;49.874;9.154;2024-03-07T10:09:05;18.40;;;9.35;;
71464;SDS011;59274;49.874;9.154;2024-03-07T10:11:32;18.45;;;9.48;;
71464;SDS011;59274;49.874;9.154;2024-03-07T10:14:01;18.70;;;9.90;;
71464;SDS011;59274;49.874;9.154;2024-03-07T10:16:30;19.40;;;9.77;;
71464;SDS011;59274;49.874;9.154;2024-03-07T10:18:57;20.70;;;9.70;;
71464;SDS011;59274;49.874;9.154;2024-03-07T10:21:23;17.55;;;9.70;;
71464;SDS011;59274;49.874;9.154;2024-03-07T10:23:49;18.05;;;9.13;;
71464;SDS011;59274;49.874;9.154;2024-03-07T10:26:17;19.97;;;9.60;;
71464;SDS011;59274;49.874;9.154;2024-03-07T10:28:43;19.65;;;9.23;;
71464;SDS011;59274;49.874;9.154;2024-03-07T10:31:09;17.70;;;9.10;;
71464;SDS011;59274;49.874;9.154;2024-03-07T10:33:39;16.38;;;8.35;;
71464;SDS011;59274;49.874;9.154;2024-03-07T10:36:05;16.98;;;8.70;;
71464;SDS011;59274;49.874;9.154;2024-03-07T10:38:36;17.23;;;8.93;;
71464;SDS011;59274;49.874;9.154;2024-03-07T10:41:02;15.40;;;8.50;;
71464;SDS011;59274;49.874;9.154;2024-03-07T10:43:35;17.77;;;8.13;;
71464;SDS011;59274;49.874;9.154;2024-03-07T10:46:04;14.48;;;8.05;;
71464;SDS011;59274;49.874;9.154;2024-03-07T10:48:39;16.90;;;8.93;;
71464;SDS011;59274;49.874;9.154;2024-03-07T10:51:21;16.70;;;8.70;;
71464;SDS011;59274;49.874;9.154;2024-03-07T10:59:30;16.60;;;8.40;;
71464;SDS011;59274;49.874;9.154;2024-03-07T11:04:50;16.73;;;8.15;;
71464;SDS011;59274;49.874;9.154;2024-03-07T11:07:18;17.47;;;8.43;;
71464;SDS011;59274;49.874;9.154;2024-03-07T11:09:47;14.95;;;7.57;;
71464;SDS011;59274;49.874;9.154;2024-03-07T11:12:14;17.45;;;8.10;;
71464;SDS011;59274;49.874;9.154;2024-03-07T11:14:41;16.48;;;8.80;;
71464;SDS011;59274;49.874;9.154;2024-03-07T11:17:08;15.63;;;8.02;;
71464;SDS011;59274;49.874;9.154;2024-03-07T11:19:38;15.03;;;8.03;;
71464;SDS011;59274;49.874;9.154;2024-03-07T11:22:07;16.13;;;8.13;;
71464;SDS011;59274;49.874;9.154;2024-03-07T11:24:43;15.43;;;8.23;;
71464;SDS011;59274;49.874;9.154;2024-03-07T11:27:09;14.68;;;7.28;;
71464;SDS011;59274;49.874;9.154;2024-03-07T11:29:43;13.48;;;7.18;;
71464;SDS011;59274;49.874;9.154;2024-03-07T11:32:13;15.60;;;8.13;;
71464;SDS011;59274;49.874;9.154;2024-03-07T11:34:41;15.50;;;7.90;;
71464;SDS011;59274;49.874;9.154;2024-03-07T11:37:16;15.02;;;7.90;;
71464;SDS011;59274;49.874;9.154;2024-03-07T11:39:43;14.27;;;8.05;;
71464;SDS011;59274;49.874;9.154;2024-03-07T11:42:26;16.52;;;7.68;;
71464;SDS011;59274;49.874;9.154;2024-03-07T11:44:55;12.60;;;7.00;;
71464;SDS011;59274;49.874;9.154;2024-03-07T11:47:22;14.63;;;6.97;;
71464;SDS011;59274;49.874;9.154;2024-03-07T11:49:55;14.60;;;7.72;;
71464;SDS011;59274;49.874;9.154;2024-03-07T11:52:23;13.98;;;7.40;;
71464;SDS011;59274;49.874;9.154;2024-03-07T11:54:53;13.90;;;7.75;;
71464;SDS011;59274;49.874;9.154;2024-03-07T11:57:19;14.80;;;7.33;;
71464;SDS011;59274;49.874;9.154;2024-03-07T11:59:45;16.95;;;7.68;;
71464;SDS011;59274;49.874;9.154;2024-03-07T12:02:17;15.65;;;7.90;;
71464;SDS011;59274;49.874;9.154;2024-03-07T12:04:46;14.70;;;7.23;;
71464;SDS011;59274;49.874;9.154;2024-03-07T12:07:13;14.75;;;7.63;;
71464;SDS011;59274;49.874;9.154;2024-03-07T12:09:43;16.08;;;8.68;;
71464;SDS011;59274;49.874;9.154;2024-03-07T12:12:16;16.20;;;7.78;;
71464;SDS011;59274;49.874;9.154;2024-03-07T12:14:43;15.07;;;8.32;;
71464;SDS011;59274;49.874;9.154;2024-03-07T12:17:08;13.60;;;7.77;;
71464;SDS011;59274;49.874;9.154;2024-03-07T12:19:34;14.93;;;7.38;;
71464;SDS011;59274;49.874;9.154;2024-03-07T12:22:03;16.80;;;8.93;;
71464;SDS011;59274;49.874;9.154;2024-03-07T12:24:40;17.20;;;8.75;;
71464;SDS011;59274;49.874;9.154;2024-03-07T12:29:36;15.43;;;8.55;;
71464;SDS011;59274;49.874;9.154;2024-03-07T12:32:05;15.30;;;8.27;;
71464;SDS011;59274;49.874;9.154;2024-03-07T12:34:36;15.93;;;8.43;;
71464;SDS011;59274;49.874;9.154;2024-03-07T12:37:11;14.77;;;7.47;;
71464;SDS011;59274;49.874;9.154;2024-03-07T12:39:42;15.17;;;7.77;;
71464;SDS011;59274;49.874;9.154;2024-03-07T12:42:12;14.05;;;7.85;;
71464;SDS011;59274;49.874;9.154;2024-03-07T12:44:45;13.82;;;7.60;;
71464;SDS011;59274;49.874;9.154;2024-03-07T12:47:14;14.73;;;7.60;;
71464;SDS011;59274;49.874;9.154;2024-03-07T12:49:42;14.90;;;7.93;;
71464;SDS011;59274;49.874;9.154;2024-03-07T12:52:09;15.80;;;8.13;;
71464;SDS011;59274;49.874;9.154;2024-03-07T12:54:35;16.35;;;8.75;;
71464;SDS011;59274;49.874;9.154;2024-03-07T12:57:10;14.90;;;7.72;;
71464;SDS011;59274;49.874;9.154;2024-03-07T12:59:39;17.08;;;7.45;;
71464;SDS011;59274;49.874;9.154;2024-03-07T13:02:09;14.00;;;7.57;;
71464;SDS011;59274;49.874;9.154;2024-03-07T13:04:36;14.87;;;7.50;;
71464;SDS011;59274;49.874;9.154;2024-03-07T13:07:03;12.98;;;7.38;;
71464;SDS011;59274;49.874;9.154;2024-03-07T13:09:32;11.45;;;6.45;;
71464;SDS011;59274;49.874;9.154;2024-03-07T13:12:00;13.68;;;6.50;;
71464;SDS011;59274;49.874;9.154;2024-03-07T13:14:28;16.02;;;7.55;;
71464;SDS011;59274;49.874;9.154;2024-03-07T13:17:00;13.00;;;6.77;;
71464;SDS011;59274;49.874;9.154;2024-03-07T13:19:29;14.57;;;7.90;;
71464;SDS011;59274;49.874;9.154;2024-03-07T13:21:56;13.50;;;7.45;;
71464;SDS011;59274;49.874;9.154;2024-03-07T13:24:22;14.55;;;7.20;;
71464;SDS011;59274;49.874;9.154;2024-03-07T13:26:49;13.55;;;7.10;;
71464;SDS011;59274;49.874;9.154;2024-03-07T13:29:15;12.77;;;7.30;;
71464;SDS011;59274;49.874;9.154;2024-03-07T13:31:44;13.70;;;6.40;;
71464;SDS011;59274;49.874;9.154;2024-03-07T13:34:10;14.18;;;6.85;;
71464;SDS011;59274;49.874;9.154;2024-03-07T13:36:40;13.35;;;6.72;;
71464;SDS011;59274;49.874;9.154;2024-03-07T13:39:06;16.05;;;8.60;;
71464;SDS011;59274;49.874;9.154;2024-03-07T13:41:39;13.93;;;7.63;;
71464;SDS011;59274;49.874;9.154;2024-03-07T13:44:09;14.63;;;7.32;;
71464;SDS011;59274;49.874;9.154;2024-03-07T13:46:35;18.25;;;9.40;;
71464;SDS011;59274;49.874;9.154;2024-03-07T13:49:02;15.00;;;7.30;;
71464;SDS011;59274;49.874;9.154;2024-03-07T13:51:42;14.82;;;6.43;;
71464;SDS011;59274;49.874;9.154;2024-03-07T13:54:17;14.15;;;7.53;;
71464;SDS011;59274;49.874;9.154;2024-03-07T14:22:24;13.48;;;7.32;;
71464;SDS011;59274;49.874;9.154;2024-03-07T14:33:26;19.35;;;8.60;;
71464;SDS011;59274;49.874;9.154;2024-03-07T14:41:20;18.67;;;8.60;;
71464;SDS011;59274;49.874;9.154;2024-03-07T14:44:05;48.07;;;17.87;;
71464;SDS011;59274;49.874;9.154;2024-03-07T14:46:32;40.63;;;16.00;;
71464;SDS011;59274;49.874;9.154;2024-03-07T14:48:59;80.82;;;29.42;;
71464;SDS011;59274;49.874;9.154;2024-03-07T14:51:25;54.40;;;19.33;;
71464;SDS011;59274;49.874;9.154;2024-03-07T14:53:51;19.23;;;9.70;;
71464;SDS011;59274;49.874;9.154;2024-03-07T14:56:17;18.33;;;10.40;;
71464;SDS011;59274;49.874;9.154;2024-03-07T14:58:45;17.88;;;9.75;;
71464;SDS011;59274;49.874;9.154;2024-03-07T15:01:12;17.38;;;9.55;;
71464;SDS011;59274;49.874;9.154;2024-03-07T15:03:38;18.63;;;9.88;;
71464;SDS011;59274;49.874;9.154;2024-03-07T15:06:06;17.83;;;9.20;;
71464;SDS011;59274;49.874;9.154;2024-03-07T15:08:34;17.00;;;8.57;;
71464;SDS011;59274;49.874;9.154;2024-03-07T15:13:45;15.13;;;8.60;;
71464;SDS011;59274;49.874;9.154;2024-03-07T15:16:12;17.35;;;9.02;;
71464;SDS011;59274;49.874;9.154;2024-03-07T15:18:38;15.73;;;7.77;;
71464;SDS011;59274;49.874;9.154;2024-03-07T15:21:04;16.88;;;8.50;;
71464;SDS011;59274;49.874;9.154;2024-03-07T15:23:30;16.87;;;8.90;;